Time;durP1;ratioP1;P1;durP2;ratioP2;P2;SDS_P1;SDS_P2;PMS_P1;PMS_P2;Temp;Humidity;BMP_temperature;BMP_pressure;BME280_temperature;BME280_humidity;BME280_pressure;Samples;Min_cycle;Max_cycle;Signal;HPM_P1;HPM_P2
2021/12/21 00:00:56;;;;;;;14.93;8.43;;;-1.70;99.90;;;;;;5085476;28;20601;-83
2021/12/21 00:03:22;;;;;;;16.27;7.95;;;-1.70;99.90;;;;;;5092351;28;20111;-83
2021/12/21 00:05:48;;;;;;;19.10;7.82;;;-1.70;99.90;;;;;;5068469;28;20048;-83
2021/12/21 00:08:15;;;;;;;15.05;7.15;;;-1.70;99.90;;;;;;5083904;28;20044;-78
2021/12/21 00:10:44;;;;;;;12.82;7.13;;;-1.70;99.90;;;;;;5093782;28;20094;-85
2021/12/21 00:13:25;;;;;;;12.63;7.78;;;-1.80;99.90;;;;;;5076605;28;20548;-84
2021/12/21 00:16:00;;;;;;;13.50;7.07;;;-1.90;99.90;;;;;;5086756;28;20099;-84
2021/12/21 00:18:34;;;;;;;12.50;8.05;;;-1.90;99.90;;;;;;5062849;28;20045;-84
2021/12/21 00:25:59;;;;;;;17.63;9.23;;;-1.90;99.90;;;;;;5070126;28;20055;-85
2021/12/21 00:28:25;;;;;;;14.98;8.10;;;-1.80;99.90;;;;;;5069546;28;20044;-84
2021/12/21 00:30:51;;;;;;;12.65;6.30;;;-1.90;99.90;;;;;;5076412;28;20055;-84
2021/12/21 00:33:18;;;;;;;12.38;8.27;;;-1.80;99.90;;;;;;5088612;28;20044;-83
2021/12/21 00:35:44;;;;;;;13.43;7.38;;;-1.80;99.90;;;;;;5074507;28;20033;-83
2021/12/21 00:38:10;;;;;;;11.95;7.88;;;-1.90;99.90;;;;;;5083094;28;20169;-85
2021/12/21 00:40:36;;;;;;;13.38;6.00;;;-2.00;99.90;;;;;;5069055;28;20138;-85
2021/12/21 00:43:02;;;;;;;17.70;6.70;;;-2.00;99.90;;;;;;5076237;28;20047;-80
2021/12/21 00:45:28;;;;;;;11.90;8.18;;;-2.00;99.90;;;;;;5070887;28;20413;-83
2021/12/21 00:47:53;;;;;;;11.88;8.25;;;-2.10;99.90;;;;;;5078015;28;20044;-79
2021/12/21 00:50:20;;;;;;;9.23;5.95;;;-2.00;99.90;;;;;;5067936;28;20047;-83
2021/12/21 00:52:52;;;;;;;15.18;7.35;;;-2.00;99.90;;;;;;5074140;28;20048;-83
2021/12/21 00:55:20;;;;;;;17.33;6.65;;;-2.00;99.90;;;;;;5068603;28;20040;-84
2021/12/21 00:57:46;;;;;;;11.25;6.85;;;-1.90;99.90;;;;;;5069123;28;20407;-84
2021/12/21 01:00:15;;;;;;;11.40;6.25;;;-2.10;99.90;;;;;;5086437;28;20063;-85
2021/12/21 01:02:41;;;;;;;9.25;5.00;;;-2.00;99.90;;;;;;5074875;28;20141;-84
2021/12/21 01:05:28;;;;;;;10.65;4.82;;;-2.00;99.90;;;;;;5078860;28;20048;-85
2021/12/21 01:07:57;;;;;;;10.18;4.78;;;-2.00;99.90;;;;;;5069524;28;20056;-82
2021/12/21 01:13:00;;;;;;;9.07;5.18;;;-1.90;99.90;;;;;;5075236;28;20047;-84
2021/12/21 01:18:07;;;;;;;7.07;4.60;;;-2.00;99.90;;;;;;5083141;28;20044;-86
2021/12/21 01:25:46;;;;;;;7.95;4.93;;;-2.00;99.90;;;;;;5085688;28;20167;-85
2021/12/21 01:35:44;;;;;;;10.07;5.60;;;-2.10;99.90;;;;;;5059471;28;20060;-85
2021/12/21 01:38:34;;;;;;;8.80;5.15;;;-2.00;99.90;;;;;;5053430;28;20044;-86
2021/12/21 01:41:20;;;;;;;14.35;6.07;;;-2.10;99.90;;;;;;5071464;28;20048;-87
2021/12/21 01:43:57;;;;;;;7.72;5.00;;;-2.10;99.90;;;;;;5069610;28;20067;-85
2021/12/21 01:51:51;;;;;;;10.52;4.75;;;-2.30;99.90;;;;;;5079232;28;20062;-85
2021/12/21 01:54:17;;;;;;;10.57;4.90;;;-2.30;99.90;;;;;;5069751;28;20623;-84
2021/12/21 01:56:42;;;;;;;9.90;4.97;;;-2.30;99.90;;;;;;5063323;28;20478;-78
2021/12/21 01:59:09;;;;;;;10.13;5.78;;;-2.30;99.90;;;;;;5079760;28;20036;-84
2021/12/21 02:01:35;;;;;;;12.23;4.97;;;-2.20;99.90;;;;;;5058843;28;20048;-84
2021/12/21 02:04:01;;;;;;;8.65;4.15;;;-2.20;99.90;;;;;;5083527;28;20052;-85
2021/12/21 02:06:28;;;;;;;8.55;4.90;;;-2.20;99.90;;;;;;5074398;28;20074;-85
2021/12/21 02:08:54;;;;;;;13.45;5.32;;;-2.20;99.90;;;;;;5091239;28;20042;-78
2021/12/21 02:11:22;;;;;;;10.45;3.92;;;-2.30;99.90;;;;;;5092369;28;20042;-85
2021/12/21 02:13:50;;;;;;;8.82;4.72;;;-2.30;99.90;;;;;;5091931;28;20473;-85
2021/12/21 02:16:25;;;;;;;9.60;4.75;;;-2.40;99.90;;;;;;5063650;28;20072;-81
2021/12/21 02:19:02;;;;;;;11.73;5.07;;;-2.50;99.90;;;;;;5067092;28;20123;-86
2021/12/21 02:21:41;;;;;;;9.18;6.03;;;-2.70;99.90;;;;;;5063102;28;20406;-84
2021/12/21 02:24:12;;;;;;;11.50;5.75;;;-2.60;99.90;;;;;;5078313;28;20061;-84
2021/12/21 02:26:44;;;;;;;9.27;3.83;;;-2.50;99.90;;;;;;5075563;28;20517;-84
2021/12/21 02:31:37;;;;;;;11.75;5.30;;;-2.40;99.90;;;;;;5068449;28;20058;-85
2021/12/21 02:34:03;;;;;;;11.32;4.53;;;-2.40;99.90;;;;;;5061883;28;20134;-83
2021/12/21 02:36:29;;;;;;;8.25;4.75;;;-2.50;99.90;;;;;;5054956;28;20044;-85
2021/12/21 02:38:55;;;;;;;9.90;5.53;;;-2.40;99.90;;;;;;5063566;28;20442;-84
2021/12/21 02:41:20;;;;;;;8.95;5.85;;;-2.40;99.90;;;;;;5070679;28;20037;-83
2021/12/21 02:43:46;;;;;;;12.02;5.07;;;-2.30;99.90;;;;;;5071410;28;20040;-84
2021/12/21 02:46:12;;;;;;;11.95;4.60;;;-2.50;99.90;;;;;;5068204;28;20478;-85
2021/12/21 02:48:37;;;;;;;12.85;4.88;;;-2.50;99.90;;;;;;5052953;28;20520;-84
2021/12/21 02:51:03;;;;;;;10.85;4.53;;;-2.40;99.90;;;;;;5069940;28;20453;-83
2021/12/21 02:53:28;;;;;;;9.95;4.35;;;-2.40;99.90;;;;;;5072874;28;20440;-85
2021/12/21 02:55:54;;;;;;;8.45;4.38;;;-2.40;99.90;;;;;;5075518;28;20048;-83
2021/12/21 02:58:20;;;;;;;10.00;4.97;;;-2.40;99.90;;;;;;5064270;28;20040;-83
2021/12/21 03:00:47;;;;;;;8.73;4.63;;;-2.40;99.90;;;;;;5069787;28;20072;-86
2021/12/21 03:03:14;;;;;;;7.45;4.15;;;-2.50;99.90;;;;;;5071208;28;20482;-81
2021/12/21 03:05:47;;;;;;;7.88;5.03;;;-2.70;99.90;;;;;;5069799;28;20059;-84
2021/12/21 03:08:18;;;;;;;8.00;4.80;;;-2.70;99.90;;;;;;5054707;28;20051;-78
2021/12/21 03:11:02;;;;;;;8.00;5.07;;;-2.70;99.90;;;;;;5068008;28;20123;-83
2021/12/21 03:16:12;;;;;;;9.70;4.05;;;-2.60;99.90;;;;;;5077228;28;20051;-83
2021/12/21 03:18:37;;;;;;;16.23;4.60;;;-2.60;99.90;;;;;;5088926;28;20461;-84
2021/12/21 03:21:03;;;;;;;9.02;4.82;;;-2.60;99.90;;;;;;5070613;28;20470;-82
2021/12/21 03:23:29;;;;;;;8.43;4.35;;;-2.60;99.90;;;;;;5081874;28;20032;-85
2021/12/21 03:25:54;;;;;;;7.32;4.25;;;-2.50;99.90;;;;;;5074737;28;20135;-83
2021/12/21 03:28:20;;;;;;;9.00;5.05;;;-2.60;99.90;;;;;;5075990;28;20052;-84
2021/12/21 03:30:45;;;;;;;5.97;3.65;;;-2.60;99.90;;;;;;5082971;28;20067;-84
2021/12/21 03:33:11;;;;;;;10.82;4.68;;;-2.70;99.90;;;;;;5072001;28;20491;-85
2021/12/21 03:35:37;;;;;;;5.60;3.88;;;-2.70;99.90;;;;;;5086686;28;20043;-84
2021/12/21 03:38:03;;;;;;;8.75;4.82;;;-2.70;99.90;;;;;;5091140;28;20044;-86
2021/12/21 03:40:32;;;;;;;9.50;5.18;;;-2.70;99.90;;;;;;5082693;28;20166;-85
2021/12/21 03:42:58;;;;;;;7.30;4.90;;;-2.70;99.90;;;;;;5070809;28;20044;-84
2021/12/21 03:45:24;;;;;;;10.75;4.65;;;-2.70;99.90;;;;;;5056845;28;20040;-83
2021/12/21 03:47:49;;;;;;;4.70;3.30;;;-2.70;99.90;;;;;;5080033;28;20581;-82
2021/12/21 03:50:19;;;;;;;12.27;4.05;;;-2.70;99.90;;;;;;5084394;28;20387;-85
2021/12/21 03:52:45;;;;;;;19.08;4.68;;;-2.60;99.90;;;;;;5071094;28;20051;-83
2021/12/21 03:55:11;;;;;;;7.55;3.58;;;-2.80;99.90;;;;;;5078279;28;20402;-85
2021/12/21 03:57:36;;;;;;;10.38;3.58;;;-2.70;99.90;;;;;;5078481;28;21768;-85
2021/12/21 04:00:08;;;;;;;5.88;3.90;;;-2.70;99.90;;;;;;5088756;28;20108;-84
2021/12/21 04:02:34;;;;;;;7.60;4.22;;;-2.70;99.90;;;;;;5072743;28;20512;-85
2021/12/21 04:05:00;;;;;;;8.38;5.47;;;-2.70;99.90;;;;;;5091101;28;20032;-86
2021/12/21 04:07:27;;;;;;;8.82;3.92;;;-2.70;99.90;;;;;;5056373;28;20055;-86
2021/12/21 04:09:54;;;;;;;6.43;3.85;;;-2.70;99.90;;;;;;5089698;28;20119;-79
2021/12/21 04:12:19;;;;;;;7.75;3.53;;;-2.70;99.90;;;;;;5072068;28;20074;-84
2021/12/21 04:14:45;;;;;;;6.13;3.85;;;-2.70;99.90;;;;;;5089103;28;20629;-84
2021/12/21 04:17:18;;;;;;;7.55;3.83;;;-2.80;99.90;;;;;;5090468;28;20501;-84
2021/12/21 04:19:44;;;;;;;7.25;4.00;;;-2.70;99.90;;;;;;5088415;28;20047;-82
2021/12/21 04:22:10;;;;;;;9.82;4.60;;;-2.80;99.90;;;;;;5082415;28;20044;-83
2021/12/21 04:24:35;;;;;;;9.82;4.88;;;-2.70;99.90;;;;;;5083308;28;20696;-83
2021/12/21 04:27:01;;;;;;;7.68;3.65;;;-2.80;99.90;;;;;;5095880;28;20036;-84
2021/12/21 04:29:26;;;;;;;9.60;4.65;;;-2.80;99.90;;;;;;5080205;28;20037;-83
2021/12/21 04:31:52;;;;;;;7.18;4.93;;;-2.80;99.90;;;;;;5076995;28;20037;-85
2021/12/21 04:34:18;;;;;;;11.93;5.00;;;-2.80;99.90;;;;;;5064260;28;20067;-85
2021/12/21 04:36:45;;;;;;;9.30;5.10;;;-2.80;99.90;;;;;;5084384;28;20131;-84
2021/12/21 04:39:22;;;;;;;10.75;4.93;;;-2.90;99.90;;;;;;5065360;28;20115;-85
2021/12/21 04:41:48;;;;;;;12.82;5.20;;;-2.80;99.90;;;;;;5090063;28;20040;-85
2021/12/21 04:44:14;;;;;;;12.65;5.80;;;-3.00;99.90;;;;;;5089440;28;20044;-80
2021/12/21 04:46:39;;;;;;;8.35;4.65;;;-2.90;99.90;;;;;;5090567;28;20719;-84
2021/12/21 04:49:05;;;;;;;14.60;5.93;;;-2.90;99.90;;;;;;5072679;28;20063;-84
2021/12/21 04:51:30;;;;;;;10.77;4.10;;;-2.90;99.90;;;;;;5090510;28;20084;-85
2021/12/21 04:53:56;;;;;;;5.65;4.32;;;-2.80;99.90;;;;;;5085855;28;20128;-85
2021/12/21 04:56:22;;;;;;;10.27;3.58;;;-2.80;99.90;;;;;;5081322;28;20044;-85
2021/12/21 04:58:47;;;;;;;7.57;3.83;;;-3.00;99.90;;;;;;5065675;28;20122;-85
2021/12/21 05:01:13;;;;;;;11.85;4.15;;;-3.00;99.90;;;;;;5095631;28;20051;-79
2021/12/21 05:03:38;;;;;;;9.82;4.18;;;-2.90;99.90;;;;;;5087301;28;20417;-86
2021/12/21 05:06:04;;;;;;;10.05;4.35;;;-3.00;99.90;;;;;;5059948;28;20115;-85
2021/12/21 05:08:35;;;;;;;9.52;4.35;;;-2.90;99.90;;;;;;5096441;28;20055;-87
2021/12/21 05:11:04;;;;;;;11.32;4.35;;;-2.90;99.90;;;;;;5099281;28;20055;-84
2021/12/21 05:13:32;;;;;;;8.95;4.75;;;-2.90;99.90;;;;;;5102628;28;20036;-84
2021/12/21 05:15:58;;;;;;;9.55;5.32;;;-3.00;99.90;;;;;;5086513;28;20091;-84
2021/12/21 05:18:24;;;;;;;10.00;5.63;;;-2.90;99.90;;;;;;5078138;28;20043;-85
2021/12/21 05:20:51;;;;;;;11.10;4.28;;;-2.90;99.90;;;;;;5086652;28;20100;-86
2021/12/21 05:23:17;;;;;;;7.32;3.92;;;-2.90;99.90;;;;;;5068142;28;20040;-82
2021/12/21 05:25:42;;;;;;;11.57;5.03;;;-3.10;99.90;;;;;;5077723;28;20052;-76
2021/12/21 05:28:10;;;;;;;12.98;3.92;;;-3.10;99.90;;;;;;5083463;28;20078;-77
2021/12/21 05:30:37;;;;;;;8.93;4.28;;;-3.00;99.90;;;;;;5054345;28;20035;-85
2021/12/21 05:33:04;;;;;;;8.15;4.68;;;-3.00;99.90;;;;;;5076090;28;20044;-86
2021/12/21 05:35:30;;;;;;;9.45;4.15;;;-3.00;99.90;;;;;;5089577;28;20565;-84
2021/12/21 05:38:00;;;;;;;11.35;4.88;;;-3.10;99.90;;;;;;5069414;28;20049;-83
2021/12/21 05:40:36;;;;;;;9.20;4.22;;;-3.00;99.90;;;;;;5077817;28;20052;-84
2021/12/21 05:43:02;;;;;;;10.57;5.15;;;-2.90;99.90;;;;;;5080847;28;20044;-79
2021/12/21 05:45:28;;;;;;;14.88;5.30;;;-2.90;99.90;;;;;;5084828;28;20440;-85
2021/12/21 05:47:53;;;;;;;7.05;3.80;;;-3.10;99.90;;;;;;5075013;28;20052;-77
2021/12/21 05:50:20;;;;;;;9.52;4.80;;;-3.10;99.90;;;;;;5093299;28;20044;-83
2021/12/21 05:52:46;;;;;;;9.02;4.85;;;-3.00;99.90;;;;;;5086415;28;20083;-82
2021/12/21 05:55:13;;;;;;;8.60;4.80;;;-3.10;99.90;;;;;;5083321;28;20107;-84
2021/12/21 05:57:39;;;;;;;8.63;5.60;;;-3.00;99.90;;;;;;5062564;28;20040;-85
2021/12/21 06:00:12;;;;;;;7.55;4.78;;;-3.10;99.90;;;;;;5083728;28;20052;-85
2021/12/21 06:02:37;;;;;;;7.35;3.88;;;-3.10;99.90;;;;;;5079662;28;20043;-82
2021/12/21 06:05:04;;;;;;;7.90;5.28;;;-3.20;99.90;;;;;;5095844;28;20762;-81
2021/12/21 06:07:31;;;;;;;7.28;4.93;;;-3.10;99.90;;;;;;5095243;28;20521;-83
2021/12/21 06:09:57;;;;;;;11.00;5.75;;;-3.10;99.90;;;;;;5088416;28;20032;-84
2021/12/21 06:15:13;;;;;;;15.40;8.70;;;-3.00;99.90;;;;;;5093542;28;20064;-84
2021/12/21 06:26:07;;;;;;;9.75;5.85;;;-3.20;99.90;;;;;;5048211;28;20067;-83
2021/12/21 06:28:33;;;;;;;14.48;6.05;;;-3.20;99.90;;;;;;5072734;28;20367;-84
2021/12/21 06:30:59;;;;;;;29.42;19.40;;;-3.30;99.90;;;;;;5079215;28;20098;-83
2021/12/21 06:33:24;;;;;;;30.85;19.73;;;-3.20;99.90;;;;;;5098764;28;20039;-84
2021/12/21 06:35:50;;;;;;;26.08;16.20;;;-3.30;99.90;;;;;;5081229;28;20082;-81
2021/12/21 06:38:16;;;;;;;14.73;9.23;;;-3.30;99.90;;;;;;5060281;28;20045;-80
2021/12/21 06:40:42;;;;;;;13.10;6.38;;;-3.30;99.90;;;;;;5068206;28;20078;-74
2021/12/21 06:43:13;;;;;;;11.27;5.88;;;-3.20;99.90;;;;;;5094574;28;20482;-84
2021/12/21 06:53:33;;;;;;;9.93;6.15;;;-3.20;99.90;;;;;;5091618;28;20051;-85
2021/12/21 06:55:59;;;;;;;13.40;6.35;;;-3.20;99.90;;;;;;5080919;28;20394;-84
2021/12/21 06:58:25;;;;;;;14.95;7.70;;;-3.20;99.90;;;;;;5071964;28;20045;-86
2021/12/21 07:00:52;;;;;;;16.92;8.85;;;-3.20;99.90;;;;;;5039295;28;20036;-87
2021/12/21 07:03:18;;;;;;;13.90;7.57;;;-3.20;99.90;;;;;;5068059;28;20048;-86
2021/12/21 07:05:46;;;;;;;11.32;6.38;;;-3.20;99.90;;;;;;5086734;28;20051;-87
2021/12/21 07:08:16;;;;;;;13.50;6.30;;;-3.30;99.90;;;;;;5092438;28;20405;-89
2021/12/21 07:10:50;;;;;;;11.35;6.80;;;-3.20;99.90;;;;;;5074856;28;20486;-87
2021/12/21 07:18:45;;;;;;;14.50;6.15;;;-3.20;99.90;;;;;;5081106;28;20082;-88
2021/12/21 07:21:10;;;;;;;13.73;7.40;;;-3.20;99.90;;;;;;5071388;28;20049;-86
2021/12/21 07:23:36;;;;;;;13.35;7.32;;;-3.20;99.90;;;;;;5070759;28;20051;-87
2021/12/21 07:26:02;;;;;;;13.18;8.07;;;-3.20;99.90;;;;;;5062817;28;20054;-81
2021/12/21 07:28:27;;;;;;;9.73;6.40;;;-3.20;99.90;;;;;;5072383;28;20044;-86
2021/12/21 07:30:53;;;;;;;10.23;6.63;;;-3.30;99.90;;;;;;5057158;28;20036;-86
2021/12/21 07:33:19;;;;;;;16.13;8.50;;;-3.20;99.90;;;;;;5075231;28;20054;-85
2021/12/21 07:35:45;;;;;;;9.02;5.88;;;-3.30;99.90;;;;;;5081511;28;20099;-86
2021/12/21 07:38:11;;;;;;;10.82;6.78;;;-3.30;99.90;;;;;;5103372;28;20043;-86
2021/12/21 07:40:37;;;;;;;18.05;8.00;;;-3.30;99.90;;;;;;5073565;28;20115;-87
2021/12/21 07:43:03;;;;;;;14.55;8.15;;;-3.20;99.90;;;;;;5066883;28;20055;-86
2021/12/21 07:45:29;;;;;;;17.83;8.15;;;-3.20;99.90;;;;;;5070502;28;20482;-87
2021/12/21 07:47:55;;;;;;;16.52;7.07;;;-3.30;99.90;;;;;;5089453;28;20109;-87
2021/12/21 07:50:21;;;;;;;16.58;8.20;;;-3.20;99.90;;;;;;5091378;28;20070;-85
2021/12/21 07:52:47;;;;;;;13.70;7.65;;;-3.20;99.90;;;;;;5058168;28;20105;-86
2021/12/21 07:55:13;;;;;;;14.57;7.65;;;-3.20;99.90;;;;;;5082736;28;20268;-84
2021/12/21 07:57:39;;;;;;;16.90;8.10;;;-3.20;99.90;;;;;;5093347;28;20052;-87
2021/12/21 08:00:07;;;;;;;15.73;8.13;;;-3.20;99.90;;;;;;5079491;28;20033;-85
2021/12/21 08:02:33;;;;;;;15.48;8.63;;;-3.10;99.90;;;;;;5088723;28;20244;-86
2021/12/21 08:04:59;;;;;;;14.00;8.98;;;-3.10;99.90;;;;;;5090111;28;20036;-84
2021/12/21 08:07:32;;;;;;;15.18;9.48;;;-3.10;99.90;;;;;;5103477;28;20037;-86
2021/12/21 08:09:58;;;;;;;14.85;10.15;;;-3.10;99.90;;;;;;5093991;28;20052;-84
2021/12/21 08:12:24;;;;;;;19.00;10.65;;;-2.90;99.90;;;;;;5080591;28;20043;-83
2021/12/21 08:14:51;;;;;;;20.15;9.40;;;-2.90;99.90;;;;;;5078114;28;20044;-82
2021/12/21 08:17:19;;;;;;;17.25;11.18;;;-3.00;99.90;;;;;;5081868;28;20052;-85
2021/12/21 08:19:45;;;;;;;19.90;12.75;;;-2.90;99.90;;;;;;5102998;28;20045;-84
2021/12/21 08:22:12;;;;;;;13.02;8.02;;;-2.90;99.90;;;;;;5096537;28;20044;-88
2021/12/21 08:24:38;;;;;;;18.02;9.73;;;-3.00;99.90;;;;;;5089423;28;20054;-85
2021/12/21 08:27:04;;;;;;;17.20;10.10;;;-2.90;99.90;;;;;;5091304;28;20077;-86
2021/12/21 08:29:31;;;;;;;18.90;9.73;;;-2.90;99.90;;;;;;5075647;28;20099;-89
2021/12/21 08:31:57;;;;;;;19.70;12.20;;;-2.80;99.90;;;;;;5065975;28;20091;-87
2021/12/21 08:34:22;;;;;;;19.77;10.07;;;-2.90;99.90;;;;;;5053966;28;20049;-88
2021/12/21 08:36:49;;;;;;;16.65;9.70;;;-2.80;99.90;;;;;;5070398;28;20048;-86
2021/12/21 08:39:16;;;;;;;17.85;9.75;;;-2.80;99.90;;;;;;5034920;28;20044;-83
2021/12/21 08:41:44;;;;;;;20.52;10.77;;;-2.70;99.90;;;;;;5069437;28;20127;-76
2021/12/21 08:44:11;;;;;;;27.23;10.93;;;-2.60;99.90;;;;;;5074715;28;20520;-87
2021/12/21 08:46:40;;;;;;;15.23;9.73;;;-2.60;99.90;;;;;;5055105;28;20459;-85
2021/12/21 08:49:06;;;;;;;14.10;9.97;;;-2.50;99.90;;;;;;5078701;28;20052;-88
2021/12/21 08:51:32;;;;;;;14.95;9.38;;;-2.50;99.90;;;;;;5082718;28;20119;-89
2021/12/21 08:53:58;;;;;;;15.95;10.77;;;-2.50;99.90;;;;;;5085482;28;20079;-85
2021/12/21 08:56:24;;;;;;;15.75;10.60;;;-2.30;99.90;;;;;;5082190;28;21302;-83
2021/12/21 08:58:49;;;;;;;14.07;9.18;;;-2.30;99.90;;;;;;5051824;28;20036;-84
2021/12/21 09:01:17;;;;;;;14.20;9.32;;;-2.30;99.90;;;;;;5085622;28;20090;-83
2021/12/21 09:03:43;;;;;;;20.75;9.23;;;-2.20;99.90;;;;;;5051543;28;20040;-73
2021/12/21 09:06:09;;;;;;;29.02;12.18;;;-2.20;99.90;;;;;;5085718;28;20071;-87
2021/12/21 09:08:35;;;;;;;16.08;10.73;;;-2.20;99.90;;;;;;5070667;28;20040;-84
2021/12/21 09:11:04;;;;;;;20.05;10.27;;;-2.10;99.90;;;;;;5053568;28;20431;-85
2021/12/21 09:13:31;;;;;;;16.45;10.27;;;-2.00;99.90;;;;;;5087767;28;20039;-83
2021/12/21 09:15:57;;;;;;;20.67;11.63;;;-2.00;99.90;;;;;;5088863;28;20032;-83
2021/12/21 09:18:23;;;;;;;14.70;10.73;;;-1.90;99.90;;;;;;5059138;28;20194;-84
2021/12/21 09:20:49;;;;;;;18.55;11.60;;;-1.80;99.90;;;;;;5050945;28;20041;-81
2021/12/21 09:23:15;;;;;;;22.77;12.13;;;-1.80;99.90;;;;;;5072800;28;20490;-79
2021/12/21 09:25:40;;;;;;;18.80;11.20;;;-1.70;99.90;;;;;;5054699;28;20427;-81
2021/12/21 09:28:06;;;;;;;19.10;11.80;;;-1.70;99.90;;;;;;5069524;28;20170;-83
2021/12/21 09:30:32;;;;;;;19.90;11.05;;;-1.50;99.90;;;;;;5051646;28;20589;-84
2021/12/21 09:32:59;;;;;;;18.48;11.32;;;-1.40;99.90;;;;;;5080232;28;20084;-82
2021/12/21 09:35:25;;;;;;;21.00;12.10;;;-1.40;99.90;;;;;;5084239;28;20042;-85
2021/12/21 09:37:51;;;;;;;22.38;12.63;;;-1.30;99.90;;;;;;5068203;28;20064;-83
2021/12/21 09:40:20;;;;;;;18.30;12.73;;;-1.30;99.90;;;;;;5070698;28;20044;-85
2021/12/21 09:42:47;;;;;;;25.20;13.10;;;-1.10;99.90;;;;;;5061361;28;20040;-85
2021/12/21 09:45:13;;;;;;;19.33;12.93;;;-1.20;99.90;;;;;;5089221;28;20383;-80
2021/12/21 09:47:39;;;;;;;24.05;12.35;;;-1.10;99.90;;;;;;5069805;28;20062;-86
2021/12/21 09:50:07;;;;;;;17.52;12.63;;;-1.00;99.90;;;;;;5054685;28;20036;-86
2021/12/21 09:52:33;;;;;;;23.00;13.38;;;-0.90;99.90;;;;;;5071591;28;20048;-84
2021/12/21 09:55:00;;;;;;;18.08;13.13;;;-0.90;99.90;;;;;;5069988;28;20040;-85
2021/12/21 09:57:26;;;;;;;17.98;12.60;;;-0.70;99.90;;;;;;5064154;28;20049;-85
2021/12/21 09:59:53;;;;;;;22.25;12.23;;;-0.70;99.90;;;;;;5054996;28;20127;-85
2021/12/21 10:02:21;;;;;;;16.25;11.82;;;-0.70;99.90;;;;;;5058033;28;20047;-84
2021/12/21 10:05:11;;;;;;;24.50;14.30;;;-0.50;99.90;;;;;;5065410;28;20074;-85
2021/12/21 10:07:37;;;;;;;;;;;-0.40;99.90;;;;;;5060061;28;20107;-84
2021/12/21 10:10:06;;;;;;;29.23;12.40;;;-0.40;99.90;;;;;;5048406;28;20466;-79
2021/12/21 10:12:41;;;;;;;19.40;13.13;;;-0.30;99.90;;;;;;5072749;28;20089;-82
2021/12/21 10:15:14;;;;;;;26.15;12.75;;;-0.30;99.90;;;;;;5080509;28;20049;-84
2021/12/21 10:17:49;;;;;;;18.92;12.77;;;-0.20;99.90;;;;;;5069480;28;20041;-78
2021/12/21 10:20:28;;;;;;;22.70;12.20;;;-0.10;99.90;;;;;;5063755;28;20152;-78
2021/12/21 10:22:54;;;;;;;18.08;12.10;;;0.00;99.90;;;;;;5064524;28;20032;-83
2021/12/21 10:25:19;;;;;;;22.92;11.65;;;0.00;99.90;;;;;;5060894;28;20511;-85
2021/12/21 10:27:45;;;;;;;19.33;12.18;;;0.00;99.90;;;;;;5080627;28;20054;-76
2021/12/21 10:30:12;;;;;;;14.75;10.75;;;0.10;99.90;;;;;;5074603;28;20036;-84
2021/12/21 10:32:49;;;;;;;19.98;11.88;;;0.10;99.90;;;;;;5057898;28;20052;-85
2021/12/21 10:35:15;;;;;;;19.13;10.65;;;0.30;99.90;;;;;;5071155;28;20128;-78
2021/12/21 10:37:41;;;;;;;16.20;11.18;;;0.30;99.90;;;;;;5059979;28;20146;-87
2021/12/21 10:40:10;;;;;;;15.27;10.32;;;0.30;99.90;;;;;;5059404;28;20045;-85
2021/12/21 10:42:59;;;;;;;18.20;11.48;;;0.40;99.90;;;;;;5065125;28;20049;-87
2021/12/21 10:45:27;;;;;;;18.40;10.45;;;0.50;99.90;;;;;;5047324;28;20116;-86
2021/12/21 10:47:53;;;;;;;17.75;10.38;;;0.60;99.90;;;;;;5053025;28;20120;-86
2021/12/21 10:50:20;;;;;;;19.20;10.85;;;0.70;99.90;;;;;;5045563;28;20687;-87
2021/12/21 10:52:53;;;;;;;18.77;11.30;;;0.70;99.90;;;;;;5049658;28;20041;-85
2021/12/21 10:55:36;;;;;;;19.98;10.10;;;0.80;99.90;;;;;;5061826;28;20037;-85
2021/12/21 10:58:04;;;;;;;14.95;9.88;;;0.80;99.90;;;;;;5073493;28;20045;-77
2021/12/21 11:00:30;;;;;;;18.48;10.77;;;0.90;99.90;;;;;;5061186;28;20052;-85
2021/12/21 11:02:56;;;;;;;24.65;12.65;;;0.90;99.90;;;;;;5041514;28;20041;-82
2021/12/21 11:05:22;;;;;;;25.85;11.65;;;1.00;99.90;;;;;;5052542;28;20068;-85
2021/12/21 11:10:27;;;;;;;22.25;10.73;;;1.10;99.90;;;;;;5075792;28;20076;-73
2021/12/21 11:12:56;;;;;;;19.30;11.57;;;1.20;99.90;;;;;;5069852;28;20054;-86
2021/12/21 11:15:29;;;;;;;12.95;8.07;;;1.20;99.90;;;;;;5044133;28;20087;-83
2021/12/21 11:18:19;;;;;;;16.23;9.82;;;1.20;99.90;;;;;;5063499;28;20080;-85
2021/12/21 11:20:48;;;;;;;21.83;9.35;;;1.40;99.90;;;;;;5086379;28;20086;-81
2021/12/21 11:23:16;;;;;;;16.23;10.30;;;1.40;99.90;;;;;;5062652;28;20049;-76
2021/12/21 11:25:44;;;;;;;23.23;8.90;;;1.30;99.90;;;;;;5057560;28;20051;-80
2021/12/21 11:28:36;;;;;;;12.40;8.43;;;1.40;99.90;;;;;;5061739;28;20525;-80
2021/12/21 11:31:03;;;;;;;17.17;9.05;;;1.50;99.90;;;;;;5087218;28;20097;-74
2021/12/21 11:33:34;;;;;;;15.18;9.85;;;1.50;99.90;;;;;;5087077;28;20040;-80
2021/12/21 11:38:47;;;;;;;17.08;10.68;;;1.60;99.90;;;;;;5066505;28;20080;-81
2021/12/21 11:41:13;;;;;;;15.85;8.40;;;1.70;99.90;;;;;;5081976;28;20040;-76
2021/12/21 11:43:51;;;;;;;13.65;7.78;;;1.80;99.90;;;;;;5089392;28;20040;-81
2021/12/21 11:46:28;;;;;;;11.60;7.95;;;1.90;99.90;;;;;;5084045;28;20040;-80
2021/12/21 11:49:06;;;;;;;10.30;7.78;;;1.90;99.90;;;;;;5077678;28;20445;-76
2021/12/21 11:51:32;;;;;;;11.82;7.38;;;2.00;99.90;;;;;;5070200;28;20079;-81
2021/12/21 11:53:57;;;;;;;14.30;7.90;;;2.10;99.90;;;;;;5078830;28;20071;-80
2021/12/21 11:56:26;;;;;;;16.65;9.02;;;2.10;99.90;;;;;;5057430;28;20044;-81
2021/12/21 11:58:54;;;;;;;16.52;9.50;;;2.10;99.90;;;;;;5055764;28;20040;-80
2021/12/21 12:01:23;;;;;;;11.80;6.45;;;2.10;99.90;;;;;;5067065;28;20497;-79
2021/12/21 12:04:04;;;;;;;12.75;7.30;;;2.20;99.90;;;;;;5067969;28;20080;-79
2021/12/21 12:06:47;;;;;;;9.95;5.72;;;2.20;99.90;;;;;;5052571;28;20048;-78
2021/12/21 12:09:22;;;;;;;13.77;7.10;;;2.30;99.90;;;;;;5078747;28;20413;-75
2021/12/21 12:11:48;;;;;;;12.00;5.90;;;2.40;99.90;;;;;;5086666;28;20482;-82
2021/12/21 12:14:18;;;;;;;9.13;4.35;;;2.40;99.90;;;;;;5086384;28;20047;-77
2021/12/21 12:16:50;;;;;;;7.60;5.35;;;2.40;99.90;;;;;;5067538;28;20105;-77
2021/12/21 12:19:18;;;;;;;14.05;6.55;;;2.50;99.90;;;;;;5055038;28;20075;-78
2021/12/21 12:22:00;;;;;;;10.40;6.03;;;2.50;99.90;;;;;;5049779;28;20173;-79
2021/12/21 12:24:45;;;;;;;10.52;5.13;;;2.50;99.90;;;;;;5056766;28;20491;-77
2021/12/21 12:27:19;;;;;;;17.00;4.97;;;2.60;99.90;;;;;;5056346;28;20098;-78
2021/12/21 12:29:59;;;;;;;10.77;4.78;;;2.60;99.90;;;;;;5053722;28;20053;-79
2021/12/21 12:32:31;;;;;;;16.40;5.78;;;2.60;99.90;;;;;;5054553;28;20072;-78
2021/12/21 12:35:10;;;;;;;11.70;5.32;;;2.60;99.90;;;;;;5048370;28;20060;-76
2021/12/21 12:37:49;;;;;;;11.95;5.28;;;2.70;99.90;;;;;;5033116;28;20052;-78
2021/12/21 12:40:15;;;;;;;10.30;5.13;;;2.70;99.90;;;;;;5046907;28;20399;-75
2021/12/21 12:42:52;;;;;;;10.15;5.47;;;2.80;99.90;;;;;;5049760;28;20551;-78
2021/12/21 12:45:20;;;;;;;10.23;4.22;;;2.80;99.90;;;;;;5052195;28;20076;-79
2021/12/21 12:47:49;;;;;;;9.63;5.05;;;2.80;99.90;;;;;;5056536;28;20041;-78
2021/12/21 12:50:28;;;;;;;8.88;4.60;;;2.80;99.90;;;;;;5030895;28;20076;-78
2021/12/21 12:53:01;;;;;;;13.35;4.82;;;2.90;99.90;;;;;;5048049;28;20041;-77
2021/12/21 12:55:49;;;;;;;13.40;4.70;;;2.90;99.90;;;;;;5046975;28;20088;-78
2021/12/21 12:58:20;;;;;;;10.00;4.40;;;2.90;99.90;;;;;;5048281;28;20045;-77
2021/12/21 13:00:55;;;;;;;13.23;5.65;;;2.90;99.90;;;;;;5049225;28;20403;-80
2021/12/21 13:03:30;;;;;;;14.00;5.45;;;3.00;99.90;;;;;;5053766;28;20072;-79
2021/12/21 13:05:57;;;;;;;7.72;5.13;;;3.00;99.90;;;;;;5047768;28;20458;-77
2021/12/21 13:08:26;;;;;;;9.55;6.25;;;3.00;99.90;;;;;;5030771;28;20033;-78
2021/12/21 13:10:56;;;;;;;12.67;6.20;;;3.00;99.90;;;;;;5047230;28;20140;-78
2021/12/21 13:13:41;;;;;;;11.82;6.70;;;3.10;99.90;;;;;;5059052;28;20097;-79
2021/12/21 13:16:17;;;;;;;9.82;4.75;;;3.10;99.90;;;;;;5065866;28;20472;-76
2021/12/21 13:18:46;;;;;;;14.70;5.35;;;3.10;99.90;;;;;;5056800;28;20517;-76
2021/12/21 13:21:25;;;;;;;14.88;6.05;;;3.10;99.90;;;;;;5069260;28;20111;-77
2021/12/21 13:23:58;;;;;;;10.25;5.18;;;3.10;99.90;;;;;;5068957;28;20440;-77
2021/12/21 13:26:39;;;;;;;10.20;4.50;;;3.10;99.90;;;;;;5049702;28;20087;-76
2021/12/21 13:29:10;;;;;;;33.25;6.53;;;3.10;99.90;;;;;;5068292;28;20079;-78
2021/12/21 13:31:36;;;;;;;9.85;4.68;;;3.10;99.90;;;;;;5068696;28;20067;-77
2021/12/21 13:34:04;;;;;;;10.07;4.80;;;3.10;99.90;;;;;;5059143;28;20044;-78
2021/12/21 13:36:43;;;;;;;15.32;5.75;;;3.10;99.90;;;;;;5065367;28;20049;-79
2021/12/21 13:39:30;;;;;;;10.60;4.70;;;3.10;99.90;;;;;;5056697;28;20044;-81
2021/12/21 13:42:00;;;;;;;18.90;5.35;;;3.10;99.90;;;;;;5052039;28;20094;-80
2021/12/21 13:44:35;;;;;;;10.10;5.78;;;3.20;99.90;;;;;;5050056;28;20532;-80
2021/12/21 13:47:04;;;;;;;12.75;4.70;;;3.10;99.90;;;;;;5050375;28;20055;-80
2021/12/21 13:49:30;;;;;;;14.85;6.60;;;3.10;99.90;;;;;;5071656;28;20036;-81
2021/12/21 13:51:58;;;;;;;10.13;5.25;;;3.10;99.90;;;;;;5074908;28;20040;-79